Time;durP1;ratioP1;P1;durP2;ratioP2;P2;SDS_P1;SDS_P2;PMS_P1;PMS_P2;Temp;Humidity;BMP_temperature;BMP_pressure;BME280_temperature;BME280_humidity;BME280_pressure;Samples;Min_cycle;Max_cycle;Signal;HPM_P1;HPM_P2
2023/04/12 00:00:38;;;;;;;;;;;;;;;24.07;33.48;99587.83;103880;1286;62501;-82
2023/04/12 00:03:04;;;;;;;;;;;;;;;24.08;33.48;99585.80;103945;1288;61614;-82
2023/04/12 00:05:31;;;;;;;;;;;;;;;24.07;33.42;99585.29;103978;1288;62595;-82
2023/04/12 00:07:59;;;;;;;;;;;;;;;24.07;33.51;99583.30;103958;1288;61269;-81
2023/04/12 00:10:25;;;;;;;;;;;;;;;24.08;33.43;99579.49;104063;1288;61330;-82
2023/04/12 00:12:50;;;;;;;;;;;;;;;24.08;33.48;99573.95;103882;1283;62651;-82
2023/04/12 00:15:16;;;;;;;;;;;;;;;24.07;33.48;99573.43;104042;1288;61294;-82
2023/04/12 00:17:41;;;;;;;;;;;;;;;24.08;33.47;99570.90;104105;1289;62648;-81
2023/04/12 00:20:11;;;;;;;;;;;;;;;24.08;33.42;99567.13;103983;1283;61371;-82
2023/04/12 00:22:40;;;;;;;;;;;;;;;24.07;33.46;99565.54;103991;1284;62465;-82
2023/04/12 00:25:05;;;;;;;;;;;;;;;24.08;33.46;99566.92;104084;1284;62606;-82
2023/04/12 00:27:31;;;;;;;;;;;;;;;24.08;33.44;99568.73;103825;1287;61476;-81
2023/04/12 00:29:56;;;;;;;;;;;;;;;24.08;33.44;99569.45;104019;1283;61388;-82
2023/04/12 00:32:23;;;;;;;;;;;;;;;24.08;33.49;99570.32;103898;1283;61381;-82
2023/04/12 00:34:48;;;;;;;;;;;;;;;24.08;33.44;99572.48;103942;1286;61345;-81
2023/04/12 00:37:13;;;;;;;;;;;;;;;24.08;33.44;99570.30;103948;1283;62644;-82
2023/04/12 00:39:39;;;;;;;;;;;;;;;24.07;33.44;99571.08;103917;1285;61345;-82
2023/04/12 00:42:05;;;;;;;;;;;;;;;24.08;33.44;99571.61;103951;1289;61388;-82
2023/04/12 00:44:31;;;;;;;;;;;;;;;24.08;33.51;99573.36;103926;1289;61401;-82
2023/04/12 00:46:57;;;;;;;;;;;;;;;24.08;33.44;99575.70;103993;1288;61372;-82
2023/04/12 00:49:23;;;;;;;;;;;;;;;24.08;33.42;99577.70;104079;1296;61397;-82
2023/04/12 00:51:48;;;;;;;;;;;;;;;24.08;33.48;99572.65;103971;1289;62445;-82
2023/04/12 00:54:16;;;;;;;;;;;;;;;24.08;33.46;99573.90;103780;1286;74633;-82
2023/04/12 00:56:43;;;;;;;;;;;;;;;24.08;33.45;99565.83;104063;1287;61339;-81
2023/04/12 00:59:09;;;;;;;;;;;;;;;24.08;33.46;99567.60;104032;1287;61252;-81
2023/04/12 01:01:37;;;;;;;;;;;;;;;24.08;33.49;99567.98;103999;1288;61448;-82
2023/04/12 01:04:03;;;;;;;;;;;;;;;24.08;33.48;99566.17;104091;1283;74448;-82
2023/04/12 01:06:47;;;;;;;;;;;;;;;24.08;33.49;99562.92;104104;1283;61416;-82
2023/04/12 01:09:14;;;;;;;;;;;;;;;24.09;33.46;99563.42;103944;1288;62462;-82
2023/04/12 01:12:00;;;;;;;;;;;;;;;24.09;33.50;99560.53;104045;1283;72254;-81
2023/04/12 01:14:48;;;;;;;;;;;;;;;24.08;33.49;99560.02;104068;1283;75608;-82
2023/04/12 01:17:19;;;;;;;;;;;;;;;24.09;33.44;99561.44;104142;1285;61381;-82
2023/04/12 01:19:52;;;;;;;;;;;;;;;24.09;33.55;99554.98;104069;1283;61355;-82
2023/04/12 01:22:27;;;;;;;;;;;;;;;24.09;33.55;99550.96;104671;1288;72443;-82
2023/04/12 01:24:56;;;;;;;;;;;;;;;24.09;33.53;99550.55;105092;1283;75458;-82
2023/04/12 01:27:28;;;;;;;;;;;;;;;24.10;33.60;99548.92;105230;1283;61256;-82
2023/04/12 01:29:55;;;;;;;;;;;;;;;24.10;33.56;99547.79;104393;1290;61349;-82
2023/04/12 01:32:20;;;;;;;;;;;;;;;24.11;33.61;99545.40;103933;1283;73108;-82
2023/04/12 01:34:47;;;;;;;;;;;;;;;24.11;33.62;99541.25;103849;1283;62504;-82
2023/04/12 01:37:15;;;;;;;;;;;;;;;24.12;33.65;99536.73;103807;1288;61356;-82
2023/04/12 01:39:41;;;;;;;;;;;;;;;24.12;33.62;99527.88;103639;1291;61376;-81
2023/04/12 01:42:07;;;;;;;;;;;;;;;24.12;33.56;99525.02;103837;1288;61297;-81
2023/04/12 01:44:33;;;;;;;;;;;;;;;24.12;33.58;99526.09;103783;1288;61333;-81
2023/04/12 01:46:59;;;;;;;;;;;;;;;24.12;33.61;99527.20;103774;1288;62058;-82
2023/04/12 01:49:27;;;;;;;;;;;;;;;24.12;33.57;99526.47;103893;1287;61346;-81
2023/04/12 01:51:55;;;;;;;;;;;;;;;24.12;33.64;99526.14;103992;1286;61409;-82
2023/04/12 01:54:26;;;;;;;;;;;;;;;24.11;33.64;99526.90;103936;1287;75761;-82
2023/04/12 01:57:01;;;;;;;;;;;;;;;24.11;33.64;99527.07;103925;1288;61250;-82
2023/04/12 01:59:47;;;;;;;;;;;;;;;24.10;33.63;99528.55;103775;1286;61368;-81
2023/04/12 02:02:13;;;;;;;;;;;;;;;24.10;33.71;99530.38;103885;1286;72692;-81
2023/04/12 02:04:38;;;;;;;;;;;;;;;24.10;33.67;99529.08;103858;1289;62638;-81
2023/04/12 02:07:04;;;;;;;;;;;;;;;24.10;33.69;99532.66;103886;1288;61452;-81
2023/04/12 02:09:30;;;;;;;;;;;;;;;24.10;33.66;99526.56;103898;1283;61410;-82
2023/04/12 02:11:55;;;;;;;;;;;;;;;24.10;33.68;99527.85;103866;1288;61470;-81
2023/04/12 02:14:21;;;;;;;;;;;;;;;24.10;33.72;99533.40;103988;1285;73918;-81
2023/04/12 02:16:46;;;;;;;;;;;;;;;24.11;33.74;99528.89;104031;1288;61352;-81
2023/04/12 02:19:13;;;;;;;;;;;;;;;24.11;33.65;99526.69;104077;1283;61333;-81
2023/04/12 02:21:40;;;;;;;;;;;;;;;24.11;33.74;99521.71;103871;1289;61326;-82
2023/04/12 02:24:06;;;;;;;;;;;;;;;24.11;33.71;99524.54;103939;1288;62587;-82
2023/04/12 02:26:32;;;;;;;;;;;;;;;24.10;33.69;99520.45;103820;1283;61394;-82
2023/04/12 02:28:58;;;;;;;;;;;;;;;24.11;33.82;99521.88;103821;1288;61400;-82
2023/04/12 02:31:23;;;;;;;;;;;;;;;24.11;33.82;99515.41;103912;1288;61396;-81
2023/04/12 02:33:49;;;;;;;;;;;;;;;24.10;33.78;99509.02;104003;1285;61842;-82
2023/04/12 02:36:14;;;;;;;;;;;;;;;24.11;33.80;99510.72;103768;1283;72570;-81
2023/04/12 02:38:40;;;;;;;;;;;;;;;24.10;33.78;99508.42;103797;1288;61378;-81
2023/04/12 02:41:05;;;;;;;;;;;;;;;24.10;33.79;99509.34;103978;1285;62582;-82
2023/04/12 02:43:31;;;;;;;;;;;;;;;24.10;33.77;99505.00;103841;1283;61474;-82
2023/04/12 02:45:57;;;;;;;;;;;;;;;24.10;33.78;99503.55;103813;1285;61862;-82
2023/04/12 02:48:23;;;;;;;;;;;;;;;24.10;33.77;99508.23;103871;1286;72568;-82
2023/04/12 02:50:49;;;;;;;;;;;;;;;24.10;33.86;99508.23;103957;1288;61288;-81
2023/04/12 02:53:14;;;;;;;;;;;;;;;24.11;33.83;99508.02;103882;1288;61372;-82
2023/04/12 02:55:40;;;;;;;;;;;;;;;24.10;33.85;99507.32;103820;1285;61371;-81
2023/04/12 02:58:06;;;;;;;;;;;;;;;24.11;33.83;99507.99;103912;1288;61759;-82
2023/04/12 03:00:32;;;;;;;;;;;;;;;24.11;33.88;99508.20;103814;1288;61451;-82
2023/04/12 03:02:58;;;;;;;;;;;;;;;24.11;33.79;99507.63;103842;1286;62790;-82
2023/04/12 03:05:24;;;;;;;;;;;;;;;24.11;33.88;99504.95;103785;1288;62566;-81
2023/04/12 03:07:50;;;;;;;;;;;;;;;24.12;33.76;99505.27;103874;1283;61388;-82
2023/04/12 03:10:16;;;;;;;;;;;;;;;24.10;33.86;99503.38;103790;1288;61451;-81
2023/04/12 03:12:41;;;;;;;;;;;;;;;24.11;33.91;99495.80;103813;1285;61448;-82
2023/04/12 03:15:07;;;;;;;;;;;;;;;24.11;33.92;99499.74;103793;1288;61375;-82
2023/04/12 03:17:34;;;;;;;;;;;;;;;24.11;33.84;99498.65;103942;1283;61384;-81
2023/04/12 03:20:05;;;;;;;;;;;;;;;24.11;33.93;99497.41;103825;1288;61470;-82
2023/04/12 03:22:31;;;;;;;;;;;;;;;24.11;33.92;99495.05;103816;1291;71412;-82
2023/04/12 03:24:56;;;;;;;;;;;;;;;24.11;33.91;99493.80;103845;1288;61403;-82
2023/04/12 03:27:22;;;;;;;;;;;;;;;24.12;33.96;99496.10;103844;1287;62514;-81
2023/04/12 03:29:47;;;;;;;;;;;;;;;24.11;33.97;99495.92;103838;1283;61477;-81
2023/04/12 03:32:13;;;;;;;;;;;;;;;24.12;33.93;99493.77;103948;1286;61375;-81
2023/04/12 03:34:38;;;;;;;;;;;;;;;24.11;33.94;99502.23;103708;1293;71283;-82
2023/04/12 03:37:04;;;;;;;;;;;;;;;24.11;33.95;99507.26;104119;1288;61397;-82
2023/04/12 03:39:29;;;;;;;;;;;;;;;24.11;33.91;99512.84;103933;1283;62035;-82
2023/04/12 03:41:56;;;;;;;;;;;;;;;24.11;33.96;99518.95;104055;1286;62445;-82
2023/04/12 03:44:24;;;;;;;;;;;;;;;24.12;33.95;99522.16;104236;1283;61375;-81
2023/04/12 03:46:50;;;;;;;;;;;;;;;24.11;33.99;99519.66;104633;1285;62385;-81
2023/04/12 03:49:16;;;;;;;;;;;;;;;24.12;33.98;99521.98;105291;1283;62499;-81
2023/04/12 03:51:41;;;;;;;;;;;;;;;24.12;34.02;99516.39;104993;1285;61395;-81
2023/04/12 03:54:11;;;;;;;;;;;;;;;24.12;34.04;99516.88;104463;1283;61326;-82
2023/04/12 03:56:37;;;;;;;;;;;;;;;24.13;33.99;99516.27;104326;1285;75709;-81
2023/04/12 03:59:04;;;;;;;;;;;;;;;24.13;34.07;99518.23;104137;1285;61385;-81
2023/04/12 04:01:29;;;;;;;;;;;;;;;24.13;34.03;99523.95;104077;1283;61275;-81
2023/04/12 04:03:56;;;;;;;;;;;;;;;24.14;34.05;99528.61;103950;1284;61407;-81
2023/04/12 04:06:22;;;;;;;;;;;;;;;24.14;34.05;99525.88;103848;1283;61419;-82
2023/04/12 04:08:47;;;;;;;;;;;;;;;24.14;34.03;99528.94;103834;1286;61406;-82
2023/04/12 04:11:13;;;;;;;;;;;;;;;24.14;34.04;99528.94;103802;1283;61464;-82
2023/04/12 04:13:39;;;;;;;;;;;;;;;24.14;34.03;99532.73;104010;1288;62598;-81
2023/04/12 04:16:05;;;;;;;;;;;;;;;24.14;33.99;99535.58;103866;1288;72368;-81
2023/04/12 04:18:31;;;;;;;;;;;;;;;24.14;34.07;99538.08;104014;1285;73859;-82
2023/04/12 04:20:57;;;;;;;;;;;;;;;24.14;33.99;99535.23;103808;1288;61391;-81
2023/04/12 04:23:23;;;;;;;;;;;;;;;24.14;33.98;99541.00;103806;1285;61283;-81
2023/04/12 04:25:49;;;;;;;;;;;;;;;24.14;33.95;99542.77;103806;1290;61329;-81
2023/04/12 04:28:15;;;;;;;;;;;;;;;24.14;33.91;99541.48;103919;1287;62310;-81
2023/04/12 04:30:44;;;;;;;;;;;;;;;24.14;33.95;99541.48;103860;1283;61282;-82
2023/04/12 04:33:12;;;;;;;;;;;;;;;24.14;33.97;99542.92;103803;1288;61375;-82
2023/04/12 04:35:42;;;;;;;;;;;;;;;24.14;33.87;99544.55;103921;1284;73286;-81
2023/04/12 04:38:08;;;;;;;;;;;;;;;24.14;33.91;99545.26;103792;1288;75350;-81
2023/04/12 04:40:35;;;;;;;;;;;;;;;24.14;33.94;99548.86;103792;1286;61408;-81
2023/04/12 04:43:01;;;;;;;;;;;;;;;24.14;33.90;99548.29;103776;1283;62254;-81
2023/04/12 04:45:26;;;;;;;;;;;;;;;24.15;33.94;99546.81;103860;1285;61466;-81
2023/04/12 04:47:52;;;;;;;;;;;;;;;24.15;33.84;99546.13;103783;1285;61355;-81
2023/04/12 04:50:18;;;;;;;;;;;;;;;24.15;33.89;99551.70;103914;1285;61394;-82
2023/04/12 04:52:43;;;;;;;;;;;;;;;24.15;33.90;99551.43;103878;1286;71432;-82
2023/04/12 04:55:09;;;;;;;;;;;;;;;24.15;33.84;99548.43;103949;1286;61403;-81
2023/04/12 04:57:35;;;;;;;;;;;;;;;24.15;33.83;99549.14;103871;1286;61451;-81
2023/04/12 05:00:01;;;;;;;;;;;;;;;24.15;33.85;99550.19;103965;1283;61452;-81
2023/04/12 05:02:27;;;;;;;;;;;;;;;24.15;33.87;99556.49;104053;1286;61305;-81
2023/04/12 05:04:55;;;;;;;;;;;;;;;24.16;33.83;99554.60;104220;1282;61386;-82
2023/04/12 05:07:20;;;;;;;;;;;;;;;24.15;33.87;99558.62;104142;1286;61304;-81
2023/04/12 05:09:46;;;;;;;;;;;;;;;24.16;33.84;99561.11;104025;1285;62651;-82
2023/04/12 05:12:11;;;;;;;;;;;;;;;24.16;33.89;99559.65;103964;1282;61403;-82
2023/04/12 05:14:38;;;;;;;;;;;;;;;24.16;33.82;99560.52;104039;1283;62444;-82
2023/04/12 05:17:04;;;;;;;;;;;;;;;24.17;33.87;99559.39;103922;1282;61486;-82
2023/04/12 05:19:30;;;;;;;;;;;;;;;24.16;33.84;99559.92;104187;1286;61474;-81
2023/04/12 05:21:55;;;;;;;;;;;;;;;24.17;33.82;99563.88;103984;1287;75299;-82
2023/04/12 05:24:21;;;;;;;;;;;;;;;24.17;33.83;99560.23;103855;1287;61879;-82
2023/04/12 05:26:46;;;;;;;;;;;;;;;24.17;33.83;99561.31;104009;1282;61419;-81
2023/04/12 05:29:12;;;;;;;;;;;;;;;24.18;33.91;99562.52;104224;1288;61425;-82
2023/04/12 05:31:37;;;;;;;;;;;;;;;24.17;33.88;99561.11;104181;1283;61379;-81
2023/04/12 05:34:03;;;;;;;;;;;;;;;24.18;33.85;99567.88;103817;1288;73932;-82
2023/04/12 05:36:30;;;;;;;;;;;;;;;24.18;33.85;99569.47;104025;1288;61359;-82
2023/04/12 05:38:56;;;;;;;;;;;;;;;24.19;33.95;99567.80;104050;1286;61291;-82
2023/04/12 05:41:21;;;;;;;;;;;;;;;24.20;33.99;99571.48;104133;1288;61365;-82
2023/04/12 05:43:47;;;;;;;;;;;;;;;24.20;33.95;99568.94;104094;1283;61349;-82
2023/04/12 05:46:13;;;;;;;;;;;;;;;24.20;33.91;99573.59;104165;1283;61381;-81
2023/04/12 05:48:38;;;;;;;;;;;;;;;24.20;33.94;99568.54;104082;1283;61315;-81
2023/04/12 05:51:04;;;;;;;;;;;;;;;24.20;33.98;99571.91;104107;1283;61464;-81
2023/04/12 05:53:31;;;;;;;;;;;;;;;24.21;33.94;99570.23;104087;1287;61387;-81
2023/04/12 05:55:58;;;;;;;;;;;;;;;24.20;33.96;99566.89;104241;1282;75329;-81
2023/04/12 05:58:23;;;;;;;;;;;;;;;24.20;33.89;99565.45;104514;1283;62076;-82
2023/04/12 06:00:49;;;;;;;;;;;;;;;24.20;33.91;99566.02;104252;1282;61307;-81
2023/04/12 06:03:14;;;;;;;;;;;;;;;24.21;33.98;99568.99;104369;1282;62662;-81
2023/04/12 06:05:40;;;;;;;;;;;;;;;24.21;33.92;99567.73;104482;1283;61441;-81
2023/04/12 06:08:07;;;;;;;;;;;;;;;24.22;33.89;99566.90;104567;1282;75494;-81
2023/04/12 06:10:33;;;;;;;;;;;;;;;24.22;33.95;99561.65;105161;1282;61238;-81
2023/04/12 06:12:58;;;;;;;;;;;;;;;24.22;33.94;99561.45;105401;1282;61299;-82
2023/04/12 06:15:24;;;;;;;;;;;;;;;24.22;33.91;99555.69;105336;1287;61287;-82
2023/04/12 06:17:50;;;;;;;;;;;;;;;24.24;33.89;99551.81;104797;1286;62481;-81
2023/04/12 06:20:16;;;;;;;;;;;;;;;24.25;33.93;99552.23;103885;1282;61371;-82
2023/04/12 06:22:41;;;;;;;;;;;;;;;24.26;33.89;99554.12;103938;1285;61373;-81
2023/04/12 06:25:07;;;;;;;;;;;;;;;24.27;33.83;99557.76;103885;1288;62637;-81
2023/04/12 06:27:33;;;;;;;;;;;;;;;24.27;33.87;99562.45;103878;1283;61770;-81
2023/04/12 06:30:01;;;;;;;;;;;;;;;24.27;33.79;99564.06;103962;1288;61375;-81
2023/04/12 06:32:26;;;;;;;;;;;;;;;24.26;33.80;99562.89;104208;1285;63734;-81
2023/04/12 06:34:53;;;;;;;;;;;;;;;24.25;33.84;99562.57;104183;1283;61371;-82
2023/04/12 06:37:20;;;;;;;;;;;;;;;24.25;33.80;99560.23;104043;1283;61301;-82
2023/04/12 06:39:45;;;;;;;;;;;;;;;24.25;33.83;99556.84;104004;1283;61786;-81
2023/04/12 06:42:12;;;;;;;;;;;;;;;24.25;33.82;99554.86;103999;1282;61381;-81
2023/04/12 06:44:38;;;;;;;;;;;;;;;24.25;33.76;99547.88;104015;1283;61385;-82
2023/04/12 06:47:04;;;;;;;;;;;;;;;24.25;33.77;99554.14;104027;1283;61371;-81
2023/04/12 06:49:29;;;;;;;;;;;;;;;24.25;33.77;99553.23;104016;1282;61711;-82
2023/04/12 06:51:55;;;;;;;;;;;;;;;24.26;33.81;99552.80;103990;1282;61434;-81
2023/04/12 06:54:20;;;;;;;;;;;;;;;24.26;33.70;99551.36;104084;1286;61416;-81
2023/04/12 06:56:46;;;;;;;;;;;;;;;24.26;33.70;99548.65;104044;1282;61305;-81
2023/04/12 06:59:11;;;;;;;;;;;;;;;24.26;33.74;99547.91;103914;1288;61407;-81
2023/04/12 07:01:37;;;;;;;;;;;;;;;24.26;33.73;99546.17;104208;1286;62097;-82
2023/04/12 07:04:03;;;;;;;;;;;;;;;24.26;33.74;99545.99;103469;1282;722675;-82
2023/04/12 07:06:28;;;;;;;;;;;;;;;24.26;33.72;99545.48;104155;1288;61982;-81
2023/04/12 07:08:54;;;;;;;;;;;;;;;24.26;33.75;99548.66;104037;1285;61275;-81
2023/04/12 07:11:24;;;;;;;;;;;;;;;24.26;33.69;99552.29;104320;1282;61362;-82
2023/04/12 07:13:50;;;;;;;;;;;;;;;24.25;33.68;99551.25;103985;1283;76506;-81
2023/04/12 07:16:16;;;;;;;;;;;;;;;24.25;33.77;99553.94;104047;1282;62597;-81
2023/04/12 07:18:43;;;;;;;;;;;;;;;24.26;33.80;99556.44;104054;1282;61390;-81
2023/04/12 07:21:13;;;;;;;;;;;;;;;24.25;33.78;99557.89;104131;1282;61342;-81
2023/04/12 07:23:39;;;;;;;;;;;;;;;24.26;33.72;99558.90;104235;1283;74310;-82
2023/04/12 07:26:05;;;;;;;;;;;;;;;24.26;33.69;99558.77;104112;1282;61377;-81
2023/04/12 07:28:31;;;;;;;;;;;;;;;24.26;33.78;99563.59;104570;1282;61334;-82
2023/04/12 07:30:57;;;;;;;;;;;;;;;24.26;33.76;99566.80;104018;1283;61374;-82
2023/04/12 07:33:24;;;;;;;;;;;;;;;24.27;33.79;99565.52;104060;1283;61919;-82
2023/04/12 07:35:50;;;;;;;;;;;;;;;24.27;33.79;99565.51;104147;1282;62150;-81
2023/04/12 07:38:15;;;;;;;;;;;;;;;24.28;33.78;99567.61;104157;1282;61477;-81
2023/04/12 07:40:41;;;;;;;;;;;;;;;24.27;33.84;99569.09;104267;1282;61319;-82
2023/04/12 07:43:06;;;;;;;;;;;;;;;24.26;33.82;99564.66;104195;1283;62461;-82
2023/04/12 07:45:32;;;;;;;;;;;;;;;24.27;33.83;99566.05;104118;1282;61381;-82
2023/04/12 07:47:58;;;;;;;;;;;;;;;24.26;33.74;99567.51;104231;1285;61380;-82
2023/04/12 07:50:24;;;;;;;;;;;;;;;24.27;33.78;99567.63;104238;1282;61351;-82
2023/04/12 07:52:49;;;;;;;;;;;;;;;24.27;33.79;99569.29;104054;1287;61398;-82
2023/04/12 07:55:15;;;;;;;;;;;;;;;24.27;33.77;99567.67;104082;1288;62536;-81
2023/04/12 07:57:40;;;;;;;;;;;;;;;24.27;33.83;99569.28;104265;1282;62396;-81
2023/04/12 08:00:06;;;;;;;;;;;;;;;24.26;33.86;99565.23;104100;1282;61432;-81
2023/04/12 08:02:31;;;;;;;;;;;;;;;24.25;33.92;99561.86;104012;1285;62475;-81
2023/04/12 08:04:57;;;;;;;;;;;;;;;24.25;33.88;99561.66;104179;1282;61393;-82
2023/04/12 08:07:22;;;;;;;;;;;;;;;24.25;33.82;99560.25;104255;1282;61408;-81
2023/04/12 08:09:48;;;;;;;;;;;;;;;24.25;33.91;99555.96;104163;1282;62019;-81
2023/04/12 08:12:14;;;;;;;;;;;;;;;24.25;33.91;99553.62;104150;1283;61429;-82
2023/04/12 08:14:39;;;;;;;;;;;;;;;24.25;33.89;99557.18;104210;1282;61406;-81
2023/04/12 08:17:05;;;;;;;;;;;;;;;24.26;33.95;99552.50;104132;1282;61442;-81
2023/04/12 08:19:30;;;;;;;;;;;;;;;24.25;33.93;99551.95;104088;1288;61458;-82
2023/04/12 08:21:56;;;;;;;;;;;;;;;24.25;33.92;99550.17;104264;1285;61388;-81
2023/04/12 08:24:21;;;;;;;;;;;;;;;24.26;33.88;99550.30;104065;1285;61304;-82
2023/04/12 08:26:47;;;;;;;;;;;;;;;24.26;33.92;99548.52;104051;1283;61463;-83
2023/04/12 08:29:12;;;;;;;;;;;;;;;24.26;33.90;99550.81;104066;1282;61378;-83
2023/04/12 08:31:38;;;;;;;;;;;;;;;24.26;33.95;99551.39;104035;1283;61342;-81
2023/04/12 08:34:04;;;;;;;;;;;;;;;24.26;33.98;99555.13;104065;1282;61314;-82
2023/04/12 08:36:29;;;;;;;;;;;;;;;24.26;34.02;99548.99;104106;1286;61468;-82
2023/04/12 08:38:58;;;;;;;;;;;;;;;24.26;33.97;99549.19;104167;1287;61436;-81
2023/04/12 08:41:24;;;;;;;;;;;;;;;24.26;34.00;99551.73;104834;1282;72315;-82
2023/04/12 08:43:49;;;;;;;;;;;;;;;24.26;33.96;99554.92;104152;1282;60575;-81
2023/04/12 08:46:15;;;;;;;;;;;;;;;24.27;34.00;99555.94;104307;1282;61449;-81
2023/04/12 08:48:42;;;;;;;;;;;;;;;24.27;34.09;99554.00;104036;1283;61388;-81
2023/04/12 08:51:08;;;;;;;;;;;;;;;24.28;34.08;99556.81;104080;1287;61365;-81
2023/04/12 08:53:34;;;;;;;;;;;;;;;24.28;33.96;99558.27;104295;1282;61384;-81
2023/04/12 08:56:00;;;;;;;;;;;;;;;24.28;34.04;99560.73;103998;1282;61352;-82
2023/04/12 08:58:26;;;;;;;;;;;;;;;24.28;34.12;99558.77;104012;1282;61349;-82
2023/04/12 09:00:51;;;;;;;;;;;;;;;24.28;34.10;99558.95;104076;1285;61277;-81
2023/04/12 09:03:17;;;;;;;;;;;;;;;24.28;34.04;99565.41;104297;1282;61381;-81
2023/04/12 09:05:44;;;;;;;;;;;;;;;24.28;34.10;99566.49;104108;1283;61489;-81
2023/04/12 09:08:11;;;;;;;;;;;;;;;24.28;34.01;99566.46;104144;1285;62487;-81
2023/04/12 09:10:37;;;;;;;;;;;;;;;24.29;34.15;99570.39;104029;1287;61247;-81
2023/04/12 09:13:06;;;;;;;;;;;;;;;24.28;34.11;99570.07;104031;1282;61400;-82
2023/04/12 09:15:32;;;;;;;;;;;;;;;24.28;34.08;99566.36;104027;1282;74196;-81
2023/04/12 09:18:09;;;;;;;;;;;;;;;24.26;34.15;99567.20;103893;1285;61438;-81
2023/04/12 09:20:35;;;;;;;;;;;;;;;24.25;34.16;99575.17;104023;1282;61283;-82
2023/04/12 09:23:15;;;;;;;;;;;;;;;24.24;34.16;99571.52;104152;1285;61400;-81
2023/04/12 09:25:44;;;;;;;;;;;;;;;24.23;34.22;99571.09;104110;1285;74491;-82
2023/04/12 09:28:23;;;;;;;;;;;;;;;24.22;34.20;99572.34;104159;1282;61310;-81
2023/04/12 09:30:50;;;;;;;;;;;;;;;24.20;34.14;99572.27;104002;1282;61291;-82
2023/04/12 09:33:37;;;;;;;;;;;;;;;24.19;34.25;99571.58;104090;1283;73255;-81
2023/04/12 09:36:08;;;;;;;;;;;;;;;24.16;34.21;99568.94;104054;1285;73676;-81
2023/04/12 09:38:38;;;;;;;;;;;;;;;24.15;34.27;99567.30;104067;1287;61346;-82
2023/04/12 09:41:19;;;;;;;;;;;;;;;24.13;34.28;99566.25;104144;1285;61326;-82
2023/04/12 09:43:45;;;;;;;;;;;;;;;24.11;34.28;99565.48;104177;1283;72502;-82
2023/04/12 09:46:13;;;;;;;;;;;;;;;24.10;34.26;99570.84;104030;1288;61398;-81
2023/04/12 09:48:39;;;;;;;;;;;;;;;24.08;34.35;99572.62;104072;1284;61292;-81
2023/04/12 09:51:05;;;;;;;;;;;;;;;24.07;34.35;99572.20;103973;1284;61625;-81
2023/04/12 09:53:31;;;;;;;;;;;;;;;24.05;34.41;99575.09;104353;1282;61349;-81
2023/04/12 09:55:56;;;;;;;;;;;;;;;24.04;34.34;99577.71;104139;1282;62428;-82
2023/04/12 09:58:21;;;;;;;;;;;;;;;24.03;34.39;99576.77;104025;1288;61352;-82
2023/04/12 10:00:47;;;;;;;;;;;;;;;24.02;34.44;99581.92;104027;1285;61487;-82
2023/04/12 10:03:12;;;;;;;;;;;;;;;24.00;34.39;99576.52;103950;1286;61398;-82
2023/04/12 10:05:40;;;;;;;;;;;;;;;24.00;34.45;99573.00;103993;1285;61472;-82
2023/04/12 10:08:05;;;;;;;;;;;;;;;23.98;34.41;99568.84;103868;1283;61321;-81
2023/04/12 10:10:31;;;;;;;;;;;;;;;23.97;34.41;99572.38;103975;1285;61708;-81
2023/04/12 10:12:58;;;;;;;;;;;;;;;23.96;34.54;99574.09;104025;1283;61370;-82
2023/04/12 10:15:24;;;;;;;;;;;;;;;23.95;34.43;99574.55;104013;1284;61400;-82
2023/04/12 10:17:50;;;;;;;;;;;;;;;23.93;34.58;99574.52;103967;1288;61377;-82
2023/04/12 10:20:16;;;;;;;;;;;;;;;23.92;34.55;99576.40;104410;1283;61399;-81
2023/04/12 10:22:42;;;;;;;;;;;;;;;23.91;34.60;99573.45;104021;1283;61330;-82
2023/04/12 10:25:12;;;;;;;;;;;;;;;23.90;34.57;99570.52;104153;1283;61319;-82
2023/04/12 10:27:40;;;;;;;;;;;;;;;23.89;34.60;99568.63;104148;1285;75267;-82
2023/04/12 10:30:27;;;;;;;;;;;;;;;23.89;34.64;99574.78;104284;1282;61375;-82
2023/04/12 10:33:07;;;;;;;;;;;;;;;23.88;34.57;99574.46;104066;1285;61892;-82
2023/04/12 10:35:50;;;;;;;;;;;;;;;23.87;34.68;99578.89;104074;1282;72331;-82
2023/04/12 10:38:16;;;;;;;;;;;;;;;23.87;34.74;99573.92;103806;1285;74572;-82
2023/04/12 10:41:01;;;;;;;;;;;;;;;23.86;34.70;99576.35;103862;1286;62098;-82
2023/04/12 10:43:27;;;;;;;;;;;;;;;23.85;34.74;99573.71;103956;1282;61988;-82
2023/04/12 10:45:53;;;;;;;;;;;;;;;23.84;34.71;99570.23;103976;1282;61263;-82
2023/04/12 10:48:29;;;;;;;;;;;;;;;23.83;34.72;99569.59;103991;1285;61375;-82
2023/04/12 10:51:32;;;;;;;;;;;;;;;23.82;34.77;99571.48;103977;1286;61276;-82
2023/04/12 10:54:06;;;;;;;;;;;;;;;23.82;34.75;99569.96;103382;1292;61465;-83
2023/04/12 10:56:32;;;;;;;;;;;;;;;23.82;34.78;99568.71;103222;1291;73404;-83
2023/04/12 10:58:58;;;;;;;;;;;;;;;23.81;34.83;99569.30;103320;1291;61353;-83
2023/04/12 11:01:23;;;;;;;;;;;;;;;23.80;34.77;99568.48;103394;1291;62251;-83
2023/04/12 11:04:08;;;;;;;;;;;;;;;23.80;34.93;99572.84;103746;1292;61497;-83
2023/04/12 11:06:52;;;;;;;;;;;;;;;23.80;34.81;99569.64;103285;1291;73694;-83
2023/04/12 11:09:28;;;;;;;;;;;;;;;23.79;34.80;99567.34;103125;1291;75542;-83
2023/04/12 11:11:57;;;;;;;;;;;;;;;23.79;34.84;99569.89;103198;1291;61340;-83
2023/04/12 11:14:24;;;;;;;;;;;;;;;23.78;34.84;99570.50;103156;1291;61334;-83
2023/04/12 11:17:05;;;;;;;;;;;;;;;23.77;34.79;99568.93;103134;1294;72513;-83
2023/04/12 11:19:35;;;;;;;;;;;;;;;23.76;34.81;99571.87;103135;1290;75214;-83
2023/04/12 11:22:06;;;;;;;;;;;;;;;23.76;34.85;99575.14;103278;1291;61379;-83
2023/04/12 11:24:32;;;;;;;;;;;;;;;23.75;34.91;99577.98;103174;1291;62558;-83
2023/04/12 11:26:57;;;;;;;;;;;;;;;23.75;34.85;99580.14;103099;1294;61371;-83
2023/04/12 11:29:23;;;;;;;;;;;;;;;23.74;34.94;99579.88;103701;1285;61385;-83
2023/04/12 11:31:49;;;;;;;;;;;;;;;23.74;34.92;99580.27;103797;1286;61372;-83
2023/04/12 11:34:18;;;;;;;;;;;;;;;23.73;34.97;99577.60;104023;1283;61407;-83
2023/04/12 11:36:48;;;;;;;;;;;;;;;23.72;34.91;99573.23;103962;1286;61346;-83
2023/04/12 11:39:13;;;;;;;;;;;;;;;23.72;34.89;99569.65;103983;1286;74588;-83
2023/04/12 11:41:45;;;;;;;;;;;;;;;23.71;34.95;99567.95;103984;1283;61330;-83
2023/04/12 11:44:11;;;;;;;;;;;;;;;23.71;34.89;99562.95;103829;1285;61647;-83
2023/04/12 11:46:37;;;;;;;;;;;;;;;23.71;34.94;99566.73;103858;1284;72419;-83
2023/04/12 11:49:03;;;;;;;;;;;;;;;23.70;34.92;99562.17;103744;1285;61416;-83
2023/04/12 11:51:31;;;;;;;;;;;;;;;23.70;35.05;99568.08;103872;1283;61953;-83
2023/04/12 11:53:57;;;;;;;;;;;;;;;23.69;34.96;99567.23;103970;1285;61433;-83
2023/04/12 11:56:23;;;;;;;;;;;;;;;23.69;34.98;99568.70;103804;1288;61324;-83
2023/04/12 11:58:49;;;;;;;;;;;;;;;23.68;35.00;99575.78;103746;1283;62441;-84
2023/04/12 12:01:15;;;;;;;;;;;;;;;23.68;35.02;99577.42;103924;1285;61309;-83
2023/04/12 12:03:40;;;;;;;;;;;;;;;23.68;35.06;99579.23;103800;1285;62280;-83
2023/04/12 12:06:06;;;;;;;;;;;;;;;23.68;35.11;99581.94;103787;1285;61387;-83
2023/04/12 12:08:32;;;;;;;;;;;;;;;23.67;35.06;99584.01;104002;1282;72562;-83
2023/04/12 12:10:57;;;;;;;;;;;;;;;23.66;35.09;99585.34;103831;1283;61397;-83
2023/04/12 12:13:23;;;;;;;;;;;;;;;23.67;35.03;99588.16;104099;1286;61480;-83
2023/04/12 12:15:52;;;;;;;;;;;;;;;23.67;35.08;99586.57;104062;1285;61393;-83
2023/04/12 12:18:17;;;;;;;;;;;;;;;23.66;35.11;99588.77;103773;1283;61308;-83
2023/04/12 12:20:47;;;;;;;;;;;;;;;23.65;35.09;99587.20;103868;1285;61389;-83
2023/04/12 12:23:26;;;;;;;;;;;;;;;23.65;35.12;99585.25;103849;1283;62443;-83
2023/04/12 12:25:51;;;;;;;;;;;;;;;23.65;34.98;99583.66;103975;1286;62391;-84
2023/04/12 12:28:17;;;;;;;;;;;;;;;23.65;35.08;99589.25;103925;1285;61403;-83
2023/04/12 12:30:43;;;;;;;;;;;;;;;23.65;35.03;99594.11;103936;1283;62396;-83
2023/04/12 12:33:09;;;;;;;;;;;;;;;23.64;35.10;99593.41;104040;1282;61385;-83
2023/04/12 12:35:35;;;;;;;;;;;;;;;23.65;35.14;99595.58;104113;1283;61288;-83